sensor_id;sensor_type;location;lat;lon;timestamp;pressure;altitude;pressure_sealevel;temperature
20058;BMP180;10189;49.546;7.906;2023-02-11T00:00:17;100133.00;;;4.10
20058;BMP180;10189;49.546;7.906;2023-02-11T00:02:43;100146.00;;;4.10
20058;BMP180;10189;49.546;7.906;2023-02-11T00:05:10;100151.00;;;4.00
20058;BMP180;10189;49.546;7.906;2023-02-11T00:07:36;100145.00;;;4.00
20058;BMP180;10189;49.546;7.906;2023-02-11T00:10:04;100140.00;;;4.00
20058;BMP180;10189;49.546;7.906;2023-02-11T00:12:34;100132.00;;;4.00
20058;BMP180;10189;49.546;7.906;2023-02-11T00:15:00;100134.00;;;4.00
20058;BMP180;10189;49.546;7.906;2023-02-11T00:17:26;100126.00;;;4.10
20058;BMP180;10189;49.546;7.906;2023-02-11T00:19:52;100122.00;;;4.10
20058;BMP180;10189;49.546;7.906;2023-02-11T00:22:19;100112.00;;;4.00
20058;BMP180;10189;49.546;7.906;2023-02-11T00:24:45;100120.00;;;4.00
20058;BMP180;10189;49.546;7.906;2023-02-11T00:27:11;100109.00;;;4.10
20058;BMP180;10189;49.546;7.906;2023-02-11T00:29:37;100112.00;;;4.10
20058;BMP180;10189;49.546;7.906;2023-02-11T00:32:04;100138.00;;;4.00
20058;BMP180;10189;49.546;7.906;2023-02-11T00:34:31;100133.00;;;4.10
20058;BMP180;10189;49.546;7.906;2023-02-11T00:36:58;100120.00;;;4.10
20058;BMP180;10189;49.546;7.906;2023-02-11T00:39:24;100125.00;;;4.10
20058;BMP180;10189;49.546;7.906;2023-02-11T00:41:50;100126.00;;;4.10
20058;BMP180;10189;49.546;7.906;2023-02-11T00:44:16;100122.00;;;4.00
20058;BMP180;10189;49.546;7.906;2023-02-11T00:46:42;100122.00;;;4.10
20058;BMP180;10189;49.546;7.906;2023-02-11T00:49:10;100122.00;;;4.20
20058;BMP180;10189;49.546;7.906;2023-02-11T00:51:36;100114.00;;;4.20
20058;BMP180;10189;49.546;7.906;2023-02-11T00:54:03;100118.00;;;4.30
20058;BMP180;10189;49.546;7.906;2023-02-11T00:56:29;100109.00;;;4.30
20058;BMP180;10189;49.546;7.906;2023-02-11T00:58:55;100109.00;;;4.30
20058;BMP180;10189;49.546;7.906;2023-02-11T01:01:21;100114.00;;;4.50
20058;BMP180;10189;49.546;7.906;2023-02-11T01:03:47;100126.00;;;4.50
20058;BMP180;10189;49.546;7.906;2023-02-11T01:06:13;100123.00;;;4.60
20058;BMP180;10189;49.546;7.906;2023-02-11T01:08:39;100126.00;;;4.50
20058;BMP180;10189;49.546;7.906;2023-02-11T01:11:14;100117.00;;;4.60
20058;BMP180;10189;49.546;7.906;2023-02-11T01:13:44;100100.00;;;4.70
20058;BMP180;10189;49.546;7.906;2023-02-11T01:16:11;100102.00;;;4.60
20058;BMP180;10189;49.546;7.906;2023-02-11T01:18:37;100109.00;;;4.60
20058;BMP180;10189;49.546;7.906;2023-02-11T01:21:04;100112.00;;;4.60
20058;BMP180;10189;49.546;7.906;2023-02-11T01:23:30;100097.00;;;4.70
20058;BMP180;10189;49.546;7.906;2023-02-11T01:25:56;100105.00;;;4.70
20058;BMP180;10189;49.546;7.906;2023-02-11T01:28:28;100087.00;;;4.70
20058;BMP180;10189;49.546;7.906;2023-02-11T01:30:55;100087.00;;;4.70
20058;BMP180;10189;49.546;7.906;2023-02-11T01:33:22;100094.00;;;4.80
20058;BMP180;10189;49.546;7.906;2023-02-11T01:35:49;100092.00;;;4.80
20058;BMP180;10189;49.546;7.906;2023-02-11T01:38:22;100089.00;;;4.90
20058;BMP180;10189;49.546;7.906;2023-02-11T01:40:55;100086.00;;;4.80
20058;BMP180;10189;49.546;7.906;2023-02-11T01:43:23;100086.00;;;4.90
20058;BMP180;10189;49.546;7.906;2023-02-11T01:48:34;100077.00;;;4.90
20058;BMP180;10189;49.546;7.906;2023-02-11T01:51:36;100073.00;;;4.80
20058;BMP180;10189;49.546;7.906;2023-02-11T01:54:03;100074.00;;;4.90
20058;BMP180;10189;49.546;7.906;2023-02-11T01:56:54;100067.00;;;4.80
20058;BMP180;10189;49.546;7.906;2023-02-11T02:00:16;100066.00;;;4.80
20058;BMP180;10189;49.546;7.906;2023-02-11T02:03:06;100054.00;;;4.80
20058;BMP180;10189;49.546;7.906;2023-02-11T02:05:47;100056.00;;;4.80
20058;BMP180;10189;49.546;7.906;2023-02-11T02:10:50;100057.00;;;4.80
20058;BMP180;10189;49.546;7.906;2023-02-11T02:13:22;100046.00;;;4.70
20058;BMP180;10189;49.546;7.906;2023-02-11T02:16:11;100038.00;;;4.70
20058;BMP180;10189;49.546;7.906;2023-02-11T02:22:27;100031.00;;;4.80
20058;BMP180;10189;49.546;7.906;2023-02-11T02:25:47;100041.00;;;4.70
20058;BMP180;10189;49.546;7.906;2023-02-11T02:34:36;100043.00;;;4.80
20058;BMP180;10189;49.546;7.906;2023-02-11T02:36:48;100043.00;;;4.60
20058;BMP180;10189;49.546;7.906;2023-02-11T02:39:32;100045.00;;;4.60
20058;BMP180;10189;49.546;7.906;2023-02-11T02:42:01;100032.00;;;4.60
20058;BMP180;10189;49.546;7.906;2023-02-11T02:44:29;100039.00;;;4.70
20058;BMP180;10189;49.546;7.906;2023-02-11T02:46:55;100030.00;;;4.80
20058;BMP180;10189;49.546;7.906;2023-02-11T02:49:21;100033.00;;;4.70
20058;BMP180;10189;49.546;7.906;2023-02-11T02:54:57;100037.00;;;4.70
20058;BMP180;10189;49.546;7.906;2023-02-11T02:58:04;100030.00;;;4.70
20058;BMP180;10189;49.546;7.906;2023-02-11T03:04:05;100043.00;;;4.60
20058;BMP180;10189;49.546;7.906;2023-02-11T03:07:05;100049.00;;;4.70
20058;BMP180;10189;49.546;7.906;2023-02-11T03:09:58;100044.00;;;4.60
20058;BMP180;10189;49.546;7.906;2023-02-11T03:12:28;100042.00;;;4.60
20058;BMP180;10189;49.546;7.906;2023-02-11T03:14:55;100037.00;;;4.60
20058;BMP180;10189;49.546;7.906;2023-02-11T03:17:23;100044.00;;;4.60
20058;BMP180;10189;49.546;7.906;2023-02-11T03:19:51;100055.00;;;4.80
20058;BMP180;10189;49.546;7.906;2023-02-11T03:22:42;100051.00;;;4.80
20058;BMP180;10189;49.546;7.906;2023-02-11T03:25:10;100061.00;;;4.70
20058;BMP180;10189;49.546;7.906;2023-02-11T03:27:58;100059.00;;;4.70
20058;BMP180;10189;49.546;7.906;2023-02-11T03:30:35;100067.00;;;4.80
20058;BMP180;10189;49.546;7.906;2023-02-11T03:33:26;100073.00;;;4.80
20058;BMP180;10189;49.546;7.906;2023-02-11T03:36:08;100055.00;;;4.90
20058;BMP180;10189;49.546;7.906;2023-02-11T03:38:44;100045.00;;;4.90
20058;BMP180;10189;49.546;7.906;2023-02-11T03:41:14;100047.00;;;4.90
20058;BMP180;10189;49.546;7.906;2023-02-11T03:43:48;100039.00;;;4.90
20058;BMP180;10189;49.546;7.906;2023-02-11T03:46:22;100029.00;;;4.90
20058;BMP180;10189;49.546;7.906;2023-02-11T03:48:55;100048.00;;;4.90
20058;BMP180;10189;49.546;7.906;2023-02-11T03:51:23;100034.00;;;5.00
20058;BMP180;10189;49.546;7.906;2023-02-11T03:53:54;100034.00;;;5.00
20058;BMP180;10189;49.546;7.906;2023-02-11T03:56:28;100043.00;;;4.90
20058;BMP180;10189;49.546;7.906;2023-02-11T03:58:55;100026.00;;;4.90
20058;BMP180;10189;49.546;7.906;2023-02-11T04:01:21;100026.00;;;4.80
20058;BMP180;10189;49.546;7.906;2023-02-11T04:03:47;100020.00;;;4.70
20058;BMP180;10189;49.546;7.906;2023-02-11T04:06:12;100006.00;;;4.70
20058;BMP180;10189;49.546;7.906;2023-02-11T04:08:38;100008.00;;;4.60
20058;BMP180;10189;49.546;7.906;2023-02-11T04:11:04;99994.00;;;4.60
20058;BMP180;10189;49.546;7.906;2023-02-11T04:13:30;99993.00;;;4.60
20058;BMP180;10189;49.546;7.906;2023-02-11T04:15:56;100007.00;;;4.60
20058;BMP180;10189;49.546;7.906;2023-02-11T04:18:22;99988.00;;;4.50
20058;BMP180;10189;49.546;7.906;2023-02-11T04:20:49;99998.00;;;4.50
20058;BMP180;10189;49.546;7.906;2023-02-11T04:23:15;100001.00;;;4.40
20058;BMP180;10189;49.546;7.906;2023-02-11T04:25:41;100006.00;;;4.50
20058;BMP180;10189;49.546;7.906;2023-02-11T04:28:08;99999.00;;;4.40
20058;BMP180;10189;49.546;7.906;2023-02-11T04:30:34;99989.00;;;4.40
20058;BMP180;10189;49.546;7.906;2023-02-11T04:33:00;99974.00;;;4.30
20058;BMP180;10189;49.546;7.906;2023-02-11T04:35:26;99969.00;;;4.20
20058;BMP180;10189;49.546;7.906;2023-02-11T04:37:51;99968.00;;;4.30
20058;BMP180;10189;49.546;7.906;2023-02-11T04:40:17;99966.00;;;4.20
20058;BMP180;10189;49.546;7.906;2023-02-11T04:42:43;99957.00;;;4.30
20058;BMP180;10189;49.546;7.906;2023-02-11T04:45:09;99957.00;;;4.30
20058;BMP180;10189;49.546;7.906;2023-02-11T04:47:35;99951.00;;;4.30
20058;BMP180;10189;49.546;7.906;2023-02-11T04:50:02;99947.00;;;4.30
20058;BMP180;10189;49.546;7.906;2023-02-11T04:52:28;99954.00;;;4.20
20058;BMP180;10189;49.546;7.906;2023-02-11T04:54:54;99947.00;;;4.20
20058;BMP180;10189;49.546;7.906;2023-02-11T04:57:20;99936.00;;;4.20
20058;BMP180;10189;49.546;7.906;2023-02-11T04:59:46;99947.00;;;4.40
20058;BMP180;10189;49.546;7.906;2023-02-11T05:02:12;99956.00;;;4.40
20058;BMP180;10189;49.546;7.906;2023-02-11T05:04:38;99951.00;;;4.40
20058;BMP180;10189;49.546;7.906;2023-02-11T05:07:04;99953.00;;;4.50
20058;BMP180;10189;49.546;7.906;2023-02-11T05:09:30;99961.00;;;4.50
20058;BMP180;10189;49.546;7.906;2023-02-11T05:11:55;99967.00;;;4.40
20058;BMP180;10189;49.546;7.906;2023-02-11T05:14:21;99963.00;;;4.40
20058;BMP180;10189;49.546;7.906;2023-02-11T05:16:47;99978.00;;;4.50
20058;BMP180;10189;49.546;7.906;2023-02-11T05:19:13;99991.00;;;4.60
20058;BMP180;10189;49.546;7.906;2023-02-11T05:21:39;99990.00;;;4.60
20058;BMP180;10189;49.546;7.906;2023-02-11T05:24:05;99998.00;;;4.60
20058;BMP180;10189;49.546;7.906;2023-02-11T05:26:31;99986.00;;;4.60
20058;BMP180;10189;49.546;7.906;2023-02-11T05:28:57;99982.00;;;4.60
20058;BMP180;10189;49.546;7.906;2023-02-11T05:31:23;99987.00;;;4.60
20058;BMP180;10189;49.546;7.906;2023-02-11T05:33:49;99997.00;;;4.60
20058;BMP180;10189;49.546;7.906;2023-02-11T05:36:15;100001.00;;;4.60
20058;BMP180;10189;49.546;7.906;2023-02-11T05:38:42;99988.00;;;4.70
20058;BMP180;10189;49.546;7.906;2023-02-11T05:41:09;99979.00;;;4.70
20058;BMP180;10189;49.546;7.906;2023-02-11T05:43:35;99974.00;;;4.70
20058;BMP180;10189;49.546;7.906;2023-02-11T05:46:03;99973.00;;;4.60
20058;BMP180;10189;49.546;7.906;2023-02-11T05:48:30;99963.00;;;4.60
20058;BMP180;10189;49.546;7.906;2023-02-11T05:50:56;99957.00;;;4.60
20058;BMP180;10189;49.546;7.906;2023-02-11T05:53:22;99953.00;;;4.80
20058;BMP180;10189;49.546;7.906;2023-02-11T05:55:48;99953.00;;;4.70
20058;BMP180;10189;49.546;7.906;2023-02-11T05:58:14;99953.00;;;4.70
20058;BMP180;10189;49.546;7.906;2023-02-11T06:00:40;99957.00;;;4.70
20058;BMP180;10189;49.546;7.906;2023-02-11T06:03:06;99962.00;;;4.80
20058;BMP180;10189;49.546;7.906;2023-02-11T06:05:32;99957.00;;;4.80
20058;BMP180;10189;49.546;7.906;2023-02-11T06:07:59;99963.00;;;4.90
20058;BMP180;10189;49.546;7.906;2023-02-11T06:10:25;99969.00;;;4.90
20058;BMP180;10189;49.546;7.906;2023-02-11T06:12:51;99968.00;;;4.80
20058;BMP180;10189;49.546;7.906;2023-02-11T06:15:17;99961.00;;;4.70
20058;BMP180;10189;49.546;7.906;2023-02-11T06:17:43;99962.00;;;4.80
20058;BMP180;10189;49.546;7.906;2023-02-11T06:20:10;99958.00;;;4.80
20058;BMP180;10189;49.546;7.906;2023-02-11T06:22:36;99957.00;;;4.70
20058;BMP180;10189;49.546;7.906;2023-02-11T06:25:03;99975.00;;;4.70
20058;BMP180;10189;49.546;7.906;2023-02-11T06:27:29;99963.00;;;4.70
20058;BMP180;10189;49.546;7.906;2023-02-11T06:29:55;99971.00;;;4.70
20058;BMP180;10189;49.546;7.906;2023-02-11T06:32:21;99972.00;;;4.70
20058;BMP180;10189;49.546;7.906;2023-02-11T06:34:47;99971.00;;;4.70
20058;BMP180;10189;49.546;7.906;2023-02-11T06:37:13;99975.00;;;4.60
20058;BMP180;10189;49.546;7.906;2023-02-11T06:39:38;99969.00;;;4.50
20058;BMP180;10189;49.546;7.906;2023-02-11T06:42:04;99971.00;;;4.40
20058;BMP180;10189;49.546;7.906;2023-02-11T06:44:30;99977.00;;;4.50
20058;BMP180;10189;49.546;7.906;2023-02-11T06:46:56;99985.00;;;4.50
20058;BMP180;10189;49.546;7.906;2023-02-11T06:49:22;99989.00;;;4.40
20058;BMP180;10189;49.546;7.906;2023-02-11T06:51:48;99983.00;;;4.30
20058;BMP180;10189;49.546;7.906;2023-02-11T06:54:14;99984.00;;;4.30
20058;BMP180;10189;49.546;7.906;2023-02-11T06:56:41;99977.00;;;4.40
20058;BMP180;10189;49.546;7.906;2023-02-11T06:59:07;99970.00;;;4.40
20058;BMP180;10189;49.546;7.906;2023-02-11T07:01:33;99972.00;;;4.40
20058;BMP180;10189;49.546;7.906;2023-02-11T07:03:59;99985.00;;;4.40
20058;BMP180;10189;49.546;7.906;2023-02-11T07:06:26;99981.00;;;4.50
20058;BMP180;10189;49.546;7.906;2023-02-11T07:08:54;99980.00;;;4.60
20058;BMP180;10189;49.546;7.906;2023-02-11T07:11:24;99995.00;;;4.70
20058;BMP180;10189;49.546;7.906;2023-02-11T07:13:53;99998.00;;;4.80
20058;BMP180;10189;49.546;7.906;2023-02-11T07:16:19;99979.00;;;4.90
20058;BMP180;10189;49.546;7.906;2023-02-11T07:18:47;99989.00;;;5.00
20058;BMP180;10189;49.546;7.906;2023-02-11T07:21:17;99989.00;;;5.10
20058;BMP180;10189;49.546;7.906;2023-02-11T07:23:44;99989.00;;;5.20
20058;BMP180;10189;49.546;7.906;2023-02-11T07:26:14;99978.00;;;5.20
20058;BMP180;10189;49.546;7.906;2023-02-11T07:28:42;99990.00;;;5.30
20058;BMP180;10189;49.546;7.906;2023-02-11T07:31:19;99969.00;;;5.40
20058;BMP180;10189;49.546;7.906;2023-02-11T07:33:45;99964.00;;;5.50
20058;BMP180;10189;49.546;7.906;2023-02-11T07:36:14;99963.00;;;5.40
20058;BMP180;10189;49.546;7.906;2023-02-11T07:38:41;99968.00;;;5.50
20058;BMP180;10189;49.546;7.906;2023-02-11T07:41:11;99981.00;;;5.50
20058;BMP180;10189;49.546;7.906;2023-02-11T07:43:38;99978.00;;;5.60
20058;BMP180;10189;49.546;7.906;2023-02-11T07:46:09;99976.00;;;5.70
20058;BMP180;10189;49.546;7.906;2023-02-11T07:48:35;99973.00;;;5.70
20058;BMP180;10189;49.546;7.906;2023-02-11T07:53:31;99972.00;;;5.90
20058;BMP180;10189;49.546;7.906;2023-02-11T07:55:56;99956.00;;;6.00
20058;BMP180;10189;49.546;7.906;2023-02-11T07:58:22;99970.00;;;6.20
20058;BMP180;10189;49.546;7.906;2023-02-11T08:00:48;99982.00;;;6.10
20058;BMP180;10189;49.546;7.906;2023-02-11T08:03:14;99987.00;;;6.20
20058;BMP180;10189;49.546;7.906;2023-02-11T08:05:40;99988.00;;;6.30
20058;BMP180;10189;49.546;7.906;2023-02-11T08:08:06;99992.00;;;6.10
20058;BMP180;10189;49.546;7.906;2023-02-11T08:10:32;99983.00;;;6.10
20058;BMP180;10189;49.546;7.906;2023-02-11T08:12:58;99981.00;;;6.10
20058;BMP180;10189;49.546;7.906;2023-02-11T08:15:24;99985.00;;;6.10
20058;BMP180;10189;49.546;7.906;2023-02-11T08:17:49;99970.00;;;6.20
20058;BMP180;10189;49.546;7.906;2023-02-11T08:20:15;99980.00;;;6.20
20058;BMP180;10189;49.546;7.906;2023-02-11T08:22:42;99984.00;;;6.20
20058;BMP180;10189;49.546;7.906;2023-02-11T08:25:07;99991.00;;;6.30
20058;BMP180;10189;49.546;7.906;2023-02-11T08:27:33;99993.00;;;6.50
20058;BMP180;10189;49.546;7.906;2023-02-11T08:29:59;99987.00;;;6.50
20058;BMP180;10189;49.546;7.906;2023-02-11T08:32:26;99984.00;;;6.80
20058;BMP180;10189;49.546;7.906;2023-02-11T08:34:53;99979.00;;;6.80
20058;BMP180;10189;49.546;7.906;2023-02-11T08:37:19;99973.00;;;6.70
20058;BMP180;10189;49.546;7.906;2023-02-11T08:39:45;99987.00;;;7.00
20058;BMP180;10189;49.546;7.906;2023-02-11T08:42:12;99971.00;;;7.00
20058;BMP180;10189;49.546;7.906;2023-02-11T08:44:40;99985.00;;;7.10
20058;BMP180;10189;49.546;7.906;2023-02-11T08:47:06;99973.00;;;7.20
20058;BMP180;10189;49.546;7.906;2023-02-11T08:49:32;99966.00;;;7.40
20058;BMP180;10189;49.546;7.906;2023-02-11T08:51:59;99965.00;;;7.40
20058;BMP180;10189;49.546;7.906;2023-02-11T08:54:30;99965.00;;;7.80
20058;BMP180;10189;49.546;7.906;2023-02-11T08:56:55;99964.00;;;8.10
20058;BMP180;10189;49.546;7.906;2023-02-11T08:59:21;99966.00;;;8.20
20058;BMP180;10189;49.546;7.906;2023-02-11T09:01:48;99968.00;;;8.30
20058;BMP180;10189;49.546;7.906;2023-02-11T09:04:14;99967.00;;;8.20
20058;BMP180;10189;49.546;7.906;2023-02-11T09:06:40;99962.00;;;8.20
20058;BMP180;10189;49.546;7.906;2023-02-11T09:09:12;99968.00;;;8.10
20058;BMP180;10189;49.546;7.906;2023-02-11T09:11:40;99968.00;;;7.90
20058;BMP180;10189;49.546;7.906;2023-02-11T09:14:07;99972.00;;;7.90
20058;BMP180;10189;49.546;7.906;2023-02-11T09:16:35;99982.00;;;7.60
20058;BMP180;10189;49.546;7.906;2023-02-11T09:19:03;99990.00;;;7.70
20058;BMP180;10189;49.546;7.906;2023-02-11T09:21:29;99994.00;;;7.90
20058;BMP180;10189;49.546;7.906;2023-02-11T09:23:55;99988.00;;;8.00
20058;BMP180;10189;49.546;7.906;2023-02-11T09:26:26;99982.00;;;8.00
20058;BMP180;10189;49.546;7.906;2023-02-11T09:28:52;99990.00;;;8.10
20058;BMP180;10189;49.546;7.906;2023-02-11T09:31:22;99993.00;;;8.30
20058;BMP180;10189;49.546;7.906;2023-02-11T09:33:51;100005.00;;;8.30
20058;BMP180;10189;49.546;7.906;2023-02-11T09:36:34;100008.00;;;8.40
20058;BMP180;10189;49.546;7.906;2023-02-11T09:39:06;100002.00;;;8.40
20058;BMP180;10189;49.546;7.906;2023-02-11T09:44:16;99999.00;;;8.10
20058;BMP180;10189;49.546;7.906;2023-02-11T09:46:52;100016.00;;;8.30
20058;BMP180;10189;49.546;7.906;2023-02-11T09:49:24;100013.00;;;8.60
20058;BMP180;10189;49.546;7.906;2023-02-11T09:52:07;100002.00;;;8.70
20058;BMP180;10189;49.546;7.906;2023-02-11T09:55:00;100011.00;;;8.70
20058;BMP180;10189;49.546;7.906;2023-02-11T09:57:35;99996.00;;;8.70
20058;BMP180;10189;49.546;7.906;2023-02-11T10:00:25;100012.00;;;8.30
20058;BMP180;10189;49.546;7.906;2023-02-11T10:06:04;100007.00;;;8.20
20058;BMP180;10189;49.546;7.906;2023-02-11T10:11:46;100007.00;;;8.00
20058;BMP180;10189;49.546;7.906;2023-02-11T10:22:56;100025.00;;;8.10
20058;BMP180;10189;49.546;7.906;2023-02-11T10:25:51;100014.00;;;8.20
20058;BMP180;10189;49.546;7.906;2023-02-11T10:28:27;100030.00;;;8.30
20058;BMP180;10189;49.546;7.906;2023-02-11T10:33:55;100026.00;;;8.30
20058;BMP180;10189;49.546;7.906;2023-02-11T10:36:33;100026.00;;;8.20
20058;BMP180;10189;49.546;7.906;2023-02-11T10:39:30;100017.00;;;8.20
20058;BMP180;10189;49.546;7.906;2023-02-11T10:42:07;100022.00;;;8.10
20058;BMP180;10189;49.546;7.906;2023-02-11T10:44:57;100013.00;;;8.50
20058;BMP180;10189;49.546;7.906;2023-02-11T10:47:30;100005.00;;;8.70
20058;BMP180;10189;49.546;7.906;2023-02-11T10:49:59;100011.00;;;8.70
20058;BMP180;10189;49.546;7.906;2023-02-11T10:52:29;100004.00;;;8.80
20058;BMP180;10189;49.546;7.906;2023-02-11T10:55:00;100002.00;;;8.80
20058;BMP180;10189;49.546;7.906;2023-02-11T10:57:37;99996.00;;;8.90
20058;BMP180;10189;49.546;7.906;2023-02-11T11:02:55;99991.00;;;9.10
20058;BMP180;10189;49.546;7.906;2023-02-11T11:05:45;99994.00;;;9.10
20058;BMP180;10189;49.546;7.906;2023-02-11T11:08:12;100009.00;;;9.10
20058;BMP180;10189;49.546;7.906;2023-02-11T11:10:43;99998.00;;;9.40
20058;BMP180;10189;49.546;7.906;2023-02-11T11:18:38;99993.00;;;9.90
20058;BMP180;10189;49.546;7.906;2023-02-11T11:23:54;99985.00;;;9.70
20058;BMP180;10189;49.546;7.906;2023-02-11T11:26:22;99983.00;;;9.70
20058;BMP180;10189;49.546;7.906;2023-02-11T11:31:20;99993.00;;;9.00
20058;BMP180;10189;49.546;7.906;2023-02-11T11:33:47;99998.00;;;9.00
20058;BMP180;10189;49.546;7.906;2023-02-11T11:36:37;100002.00;;;9.40
20058;BMP180;10189;49.546;7.906;2023-02-11T11:39:28;99998.00;;;9.30
20058;BMP180;10189;49.546;7.906;2023-02-11T11:42:01;99995.00;;;9.30
20058;BMP180;10189;49.546;7.906;2023-02-11T11:44:30;99994.00;;;9.10
20058;BMP180;10189;49.546;7.906;2023-02-11T11:55:15;100014.00;;;9.10
20058;BMP180;10189;49.546;7.906;2023-02-11T11:57:42;100015.00;;;9.10
20058;BMP180;10189;49.546;7.906;2023-02-11T12:00:25;99998.00;;;9.30
20058;BMP180;10189;49.546;7.906;2023-02-11T12:05:51;99997.00;;;9.60
20058;BMP180;10189;49.546;7.906;2023-02-11T12:11:28;100004.00;;;9.70
20058;BMP180;10189;49.546;7.906;2023-02-11T12:14:33;100010.00;;;9.50
20058;BMP180;10189;49.546;7.906;2023-02-11T12:17:18;100017.00;;;9.50
20058;BMP180;10189;49.546;7.906;2023-02-11T12:26:21;99994.00;;;9.80
20058;BMP180;10189;49.546;7.906;2023-02-11T12:29:37;99984.00;;;10.00
20058;BMP180;10189;49.546;7.906;2023-02-11T12:35:26;99979.00;;;9.90
20058;BMP180;10189;49.546;7.906;2023-02-11T12:43:36;99984.00;;;9.50
20058;BMP180;10189;49.546;7.906;2023-02-11T12:46:31;99985.00;;;9.60
20058;BMP180;10189;49.546;7.906;2023-02-11T12:49:35;99983.00;;;9.80
20058;BMP180;10189;49.546;7.906;2023-02-11T12:55:00;99991.00;;;9.40
20058;BMP180;10189;49.546;7.906;2023-02-11T12:57:32;99998.00;;;9.40
20058;BMP180;10189;49.546;7.906;2023-02-11T13:08:18;99994.00;;;9.50
20058;BMP180;10189;49.546;7.906;2023-02-11T13:10:50;99977.00;;;9.70
20058;BMP180;10189;49.546;7.906;2023-02-11T13:16:37;99968.00;;;9.70
20058;BMP180;10189;49.546;7.906;2023-02-11T13:22:18;99971.00;;;9.30
20058;BMP180;10189;49.546;7.906;2023-02-11T13:25:01;99973.00;;;9.30
20058;BMP180;10189;49.546;7.906;2023-02-11T13:28:15;99970.00;;;9.40
20058;BMP180;10189;49.546;7.906;2023-02-11T13:30:43;99974.00;;;9.60
20058;BMP180;10189;49.546;7.906;2023-02-11T13:33:20;99972.00;;;9.70
20058;BMP180;10189;49.546;7.906;2023-02-11T13:38:27;99970.00;;;9.50
20058;BMP180;10189;49.546;7.906;2023-02-11T13:43:25;99974.00;;;9.50
20058;BMP180;10189;49.546;7.906;2023-02-11T13:46:24;99975.00;;;9.30
20058;BMP180;10189;49.546;7.906;2023-02-11T13:48:53;99975.00;;;9.30
20058;BMP180;10189;49.546;7.906;2023-02-11T13:51:46;99983.00;;;9.40
20058;BMP180;10189;49.546;7.906;2023-02-11T13:54:25;99983.00;;;9.50
20058;BMP180;10189;49.546;7.906;2023-02-11T13:59:57;99961.00;;;9.60
20058;BMP180;10189;49.546;7.906;2023-02-11T14:02:33;99968.00;;;9.30
20058;BMP180;10189;49.546;7.906;2023-02-11T14:05:22;99968.00;;;9.30
20058;BMP180;10189;49.546;7.906;2023-02-11T14:14:13;99970.00;;;9.10
20058;BMP180;10189;49.546;7.906;2023-02-11T14:19:37;99969.00;;;9.30
20058;BMP180;10189;49.546;7.906;2023-02-11T14:22:12;99972.00;;;9.20
20058;BMP180;10189;49.546;7.906;2023-02-11T14:25:01;99966.00;;;9.20
20058;BMP180;10189;49.546;7.906;2023-02-11T14:27:41;99968.00;;;9.20
20058;BMP180;10189;49.546;7.906;2023-02-11T14:41:55;99960.00;;;9.00
20058;BMP180;10189;49.546;7.906;2023-02-11T14:44:28;99967.00;;;9.10
20058;BMP180;10189;49.546;7.906;2023-02-11T14:46:55;99972.00;;;9.10
20058;BMP180;10189;49.546;7.906;2023-02-11T14:49:38;99980.00;;;9.10
20058;BMP180;10189;49.546;7.906;2023-02-11T14:52:27;99979.00;;;9.20
20058;BMP180;10189;49.546;7.906;2023-02-11T14:55:32;99979.00;;;9.00
20058;BMP180;10189;49.546;7.906;2023-02-11T14:58:14;99980.00;;;9.10
20058;BMP180;10189;49.546;7.906;2023-02-11T15:01:01;99983.00;;;9.00
20058;BMP180;10189;49.546;7.906;2023-02-11T15:03:38;99993.00;;;8.80
20058;BMP180;10189;49.546;7.906;2023-02-11T15:06:24;99990.00;;;8.80
20058;BMP180;10189;49.546;7.906;2023-02-11T15:08:59;99998.00;;;8.80
20058;BMP180;10189;49.546;7.906;2023-02-11T15:11:28;99991.00;;;8.80
20058;BMP180;10189;49.546;7.906;2023-02-11T15:14:04;99987.00;;;8.80
20058;BMP180;10189;49.546;7.906;2023-02-11T15:16:32;99987.00;;;8.90
20058;BMP180;10189;49.546;7.906;2023-02-11T15:19:03;99984.00;;;8.80
20058;BMP180;10189;49.546;7.906;2023-02-11T15:21:34;99987.00;;;8.80
20058;BMP180;10189;49.546;7.906;2023-02-11T15:24:21;99987.00;;;8.70
20058;BMP180;10189;49.546;7.906;2023-02-11T15:27:11;99992.00;;;8.90
20058;BMP180;10189;49.546;7.906;2023-02-11T15:29:45;99981.00;;;8.80
20058;BMP180;10189;49.546;7.906;2023-02-11T15:32:14;99983.00;;;8.90
20058;BMP180;10189;49.546;7.906;2023-02-11T15:34:45;99989.00;;;8.90
20058;BMP180;10189;49.546;7.906;2023-02-11T15:37:22;99990.00;;;8.80
20058;BMP180;10189;49.546;7.906;2023-02-11T15:39:49;99991.00;;;8.80
20058;BMP180;10189;49.546;7.906;2023-02-11T15:42:28;99992.00;;;8.70
20058;BMP180;10189;49.546;7.906;2023-02-11T15:47:47;99986.00;;;8.60
20058;BMP180;10189;49.546;7.906;2023-02-11T15:50:20;99988.00;;;8.50
20058;BMP180;10189;49.546;7.906;2023-02-11T15:52:48;99989.00;;;8.50
20058;BMP180;10189;49.546;7.906;2023-02-11T15:55:16;99998.00;;;8.50
20058;BMP180;10189;49.546;7.906;2023-02-11T15:57:56;100009.00;;;8.40
20058;BMP180;10189;49.546;7.906;2023-02-11T16:00:34;99997.00;;;8.60
20058;BMP180;10189;49.546;7.906;2023-02-11T16:03:01;99999.00;;;8.60
20058;BMP180;10189;49.546;7.906;2023-02-11T16:05:36;99993.00;;;8.50
20058;BMP180;10189;49.546;7.906;2023-02-11T16:08:32;100000.00;;;8.50
20058;BMP180;10189;49.546;7.906;2023-02-11T16:11:03;100018.00;;;8.50
20058;BMP180;10189;49.546;7.906;2023-02-11T16:13:45;100014.00;;;8.60
20058;BMP180;10189;49.546;7.906;2023-02-11T16:16:22;100026.00;;;8.50
20058;BMP180;10189;49.546;7.906;2023-02-11T16:18:52;100025.00;;;8.50
20058;BMP180;10189;49.546;7.906;2023-02-11T16:21:27;100011.00;;;8.60
20058;BMP180;10189;49.546;7.906;2023-02-11T16:24:01;100024.00;;;8.50
20058;BMP180;10189;49.546;7.906;2023-02-11T16:26:36;100023.00;;;8.50
20058;BMP180;10189;49.546;7.906;2023-02-11T16:29:15;100022.00;;;8.60
20058;BMP180;10189;49.546;7.906;2023-02-11T16:31:45;100022.00;;;8.50
20058;BMP180;10189;49.546;7.906;2023-02-11T16:34:23;100027.00;;;8.40
20058;BMP180;10189;49.546;7.906;2023-02-11T16:36:51;100030.00;;;8.50
20058;BMP180;10189;49.546;7.906;2023-02-11T16:39:19;100032.00;;;8.40
20058;BMP180;10189;49.546;7.906;2023-02-11T16:41:50;100048.00;;;8.50
20058;BMP180;10189;49.546;7.906;2023-02-11T16:44:17;100041.00;;;8.50
20058;BMP180;10189;49.546;7.906;2023-02-11T16:46:44;100048.00;;;8.40
20058;BMP180;10189;49.546;7.906;2023-02-11T16:49:32;100051.00;;;8.40
20058;BMP180;10189;49.546;7.906;2023-02-11T16:52:01;100051.00;;;8.40
20058;BMP180;10189;49.546;7.906;2023-02-11T16:54:30;100048.00;;;8.40
20058;BMP180;10189;49.546;7.906;2023-02-11T16:56:56;100054.00;;;8.40
20058;BMP180;10189;49.546;7.906;2023-02-11T16:59:23;100058.00;;;8.40